Time;durP1;ratioP1;P1;durP2;ratioP2;P2;SDS_P1;SDS_P2;PMS_P1;PMS_P2;Temp;Humidity;BMP_temperature;BMP_pressure;BME280_temperature;BME280_humidity;BME280_pressure;Samples;Min_cycle;Max_cycle;Signal;HPM_P1;HPM_P2
2021/06/28 00:00:23;;;;;;;2.83;2.63;;;;;;;21.05;65.86;100214.66;5105897;28;20219;-73
2021/06/28 00:02:49;;;;;;;2.90;2.70;;;;;;;21.04;66.12;100220.88;5105452;28;20605;-73
2021/06/28 00:05:18;;;;;;;4.13;2.53;;;;;;;21.00;65.79;100236.16;5105393;28;20621;-74
2021/06/28 00:07:46;;;;;;;2.13;2.03;;;;;;;20.93;65.15;100264.06;5105254;28;20208;-73
2021/06/28 00:10:15;;;;;;;2.40;2.30;;;;;;;20.94;63.08;100347.16;5105324;28;21053;-72
2021/06/28 00:12:42;;;;;;;3.23;3.03;;;;;;;20.90;63.25;100350.97;5103083;27;20638;-73
2021/06/28 00:15:14;;;;;;;3.10;2.90;;;;;;;20.85;63.52;100343.28;5102985;27;20200;-73
2021/06/28 00:17:40;;;;;;;2.93;2.80;;;;;;;20.91;64.12;100313.72;5104179;27;20223;-73
2021/06/28 00:20:09;;;;;;;3.07;2.90;;;;;;;20.93;64.05;100313.59;5103614;27;20208;-72
2021/06/28 00:22:35;;;;;;;3.03;2.83;;;;;;;20.98;64.19;100320.34;5103295;27;20272;-73
2021/06/28 00:25:04;;;;;;;2.90;2.70;;;;;;;20.97;64.24;100320.41;5103089;27;20207;-73
2021/06/28 00:27:30;;;;;;;2.80;2.60;;;;;;;20.94;64.41;100307.38;5103548;27;20781;-72
2021/06/28 00:29:57;;;;;;;2.93;2.73;;;;;;;20.93;64.29;100325.09;5104603;27;20199;-73
2021/06/28 00:32:24;;;;;;;2.83;2.70;;;;;;;20.95;64.79;100296.66;5106386;27;20599;-73
2021/06/28 00:34:50;;;;;;;3.00;2.80;;;;;;;20.92;64.67;100304.81;5105790;27;20248;-73
2021/06/28 00:37:17;;;;;;;2.73;2.60;;;;;;;20.91;65.06;100296.94;5106574;27;20275;-73
2021/06/28 00:39:43;;;;;;;2.97;2.83;;;;;;;20.81;65.48;100278.09;5106112;27;20203;-73
2021/06/28 00:42:10;;;;;;;3.57;3.37;;;;;;;20.75;66.06;100242.22;5105996;27;20227;-73
2021/06/28 00:44:36;;;;;;;2.60;2.50;;;;;;;20.78;65.75;100255.28;5106361;27;20209;-73
2021/06/28 00:47:03;;;;;;;2.63;2.50;;;;;;;20.78;65.41;100271.19;5106047;27;20591;-73
2021/06/28 00:49:31;;;;;;;2.60;2.40;;;;;;;20.79;65.29;100280.88;5105807;27;20280;-72
2021/06/28 00:51:58;;;;;;;2.33;2.23;;;;;;;20.79;65.71;100258.78;5105518;27;20203;-73
2021/06/28 00:54:25;;;;;;;2.90;2.70;;;;;;;20.73;65.70;100248.56;5106237;27;20207;-73
2021/06/28 00:56:51;;;;;;;2.93;2.73;;;;;;;20.68;66.43;100221.50;5105448;27;20219;-73
2021/06/28 00:59:18;;;;;;;2.73;2.60;;;;;;;20.61;67.40;100175.94;5104792;27;20653;-73
2021/06/28 01:01:45;;;;;;;2.57;2.40;;;;;;;20.66;67.05;100183.63;5104788;27;20215;-73
2021/06/28 01:04:17;;;;;;;2.50;2.30;;;;;;;20.65;66.48;100208.44;5103600;28;20276;-72
2021/06/28 01:06:45;;;;;;;2.50;2.40;;;;;;;20.60;66.83;100193.66;5105609;27;20214;-73
2021/06/28 01:09:11;;;;;;;2.00;1.90;;;;;;;20.66;66.14;100218.94;5104420;27;20199;-73
2021/06/28 01:11:37;;;;;;;3.10;2.13;;;;;;;20.63;66.38;100222.66;5105564;27;20203;-73
2021/06/28 01:14:04;;;;;;;2.57;2.37;;;;;;;20.56;67.47;100180.69;5105425;27;20207;-73
2021/06/28 01:16:31;;;;;;;2.30;2.20;;;;;;;20.57;67.44;100171.75;5105163;27;20289;-73
2021/06/28 01:18:57;;;;;;;2.60;2.40;;;;;;;20.51;67.65;100166.84;5105571;27;20682;-73
2021/06/28 01:21:27;;;;;;;2.90;2.70;;;;;;;20.49;67.72;100161.66;5105569;27;20223;-73
2021/06/28 01:23:55;;;;;;;2.77;2.63;;;;;;;20.49;67.95;100150.19;5105403;27;20254;-72
2021/06/28 01:26:21;;;;;;;2.47;2.30;;;;;;;20.48;67.40;100164.41;5105334;27;20223;-73
2021/06/28 01:28:48;;;;;;;2.60;2.50;;;;;;;20.47;67.40;100181.25;5105243;27;20199;-72
2021/06/28 01:31:14;;;;;;;4.57;2.60;;;;;;;20.49;67.64;100163.44;5105024;27;20285;-73
2021/06/28 01:33:41;;;;;;;2.60;2.50;;;;;;;20.42;67.71;100163.00;5105175;27;20232;-73
2021/06/28 01:36:08;;;;;;;2.70;2.50;;;;;;;20.42;67.51;100168.31;5105219;27;20219;-73
2021/06/28 01:38:34;;;;;;;3.20;2.60;;;;;;;20.41;67.61;100177.19;5104836;27;20204;-73
2021/06/28 01:41:02;;;;;;;3.00;2.80;;;;;;;20.48;66.60;100202.38;5105313;27;20219;-73
2021/06/28 01:43:29;;;;;;;3.10;2.90;;;;;;;20.48;66.22;100236.84;5104453;27;20212;-73
2021/06/28 01:45:56;;;;;;;2.90;2.70;;;;;;;20.45;65.83;100260.91;5104436;27;20249;-73
2021/06/28 01:48:23;;;;;;;2.73;2.57;;;;;;;20.44;65.72;100254.75;5104533;27;20893;-73
2021/06/28 01:50:50;;;;;;;3.33;2.50;;;;;;;20.48;65.69;100262.53;5104915;27;20636;-73
2021/06/28 01:53:16;;;;;;;2.97;2.67;;;;;;;20.51;65.37;100273.75;5104393;27;20241;-72
2021/06/28 01:55:42;;;;;;;2.30;2.20;;;;;;;20.54;65.50;100276.25;5103401;28;20235;-71
2021/06/28 01:58:13;;;;;;;2.50;2.40;;;;;;;20.54;65.37;100275.41;5103656;28;20211;-73
2021/06/28 02:00:41;;;;;;;3.00;2.90;;;;;;;20.49;65.39;100283.63;5103886;28;20297;-73
2021/06/28 02:03:10;;;;;;;3.40;3.20;;;;;;;20.52;65.01;100301.16;5103273;28;20263;-73
2021/06/28 02:05:39;;;;;;;4.00;3.30;;;;;;;20.55;64.95;100309.75;5103713;28;20235;-73
2021/06/28 02:08:06;;;;;;;3.27;3.07;;;;;;;20.11;66.37;100260.34;5103342;28;20203;-73
2021/06/28 02:10:34;;;;;;;4.97;3.70;;;;;;;19.79;67.91;100206.69;5103374;28;20658;-71
2021/06/28 02:13:00;;;;;;;4.10;3.80;;;;;;;19.54;68.85;100164.94;5103054;28;20204;-73
2021/06/28 02:15:30;;;;;;;3.70;3.50;;;;;;;19.52;68.87;100148.28;5103890;28;20233;-73
2021/06/28 02:17:57;;;;;;;3.47;3.27;;;;;;;19.72;68.69;100155.91;5103524;28;20243;-73
2021/06/28 02:20:23;;;;;;;3.43;3.13;;;;;;;19.79;69.17;100143.13;5103012;28;20693;-73
2021/06/28 02:22:51;;;;;;;3.30;3.07;;;;;;;19.83;69.33;100137.53;5102685;28;20516;-72
2021/06/28 02:25:18;;;;;;;3.53;3.33;;;;;;;19.89;69.49;100135.47;5103095;28;20266;-73
2021/06/28 02:27:45;;;;;;;3.17;2.97;;;;;;;19.97;69.05;100151.72;5103369;28;20203;-73
2021/06/28 02:30:15;;;;;;;3.40;3.00;;;;;;;20.02;69.02;100152.31;5103154;28;20195;-72
2021/06/28 02:32:43;;;;;;;3.40;3.13;;;;;;;20.08;68.90;100164.28;5102571;28;20204;-73
2021/06/28 02:35:12;;;;;;;4.97;4.00;;;;;;;19.96;69.36;100140.28;5103481;28;20202;-73
2021/06/28 02:37:40;;;;;;;3.23;3.00;;;;;;;19.99;69.03;100136.59;5102994;28;20223;-73
2021/06/28 02:40:11;;;;;;;3.60;3.30;;;;;;;20.00;69.39;100133.84;5102867;28;20215;-73
2021/06/28 02:42:37;;;;;;;3.23;3.03;;;;;;;20.01;69.30;100130.22;5102331;28;20960;-73
2021/06/28 02:45:06;;;;;;;3.70;3.13;;;;;;;19.97;71.21;100085.50;5103012;28;20681;-73
2021/06/28 02:47:32;;;;;;;3.67;3.30;;;;;;;20.04;69.75;100110.66;5102731;28;20668;-73
2021/06/28 02:50:00;;;;;;;3.53;3.33;;;;;;;20.07;70.01;100125.50;5102712;28;20256;-71
2021/06/28 02:52:26;;;;;;;3.53;3.23;;;;;;;19.81;70.18;100130.66;5102222;28;20204;-72
2021/06/28 02:54:52;;;;;;;3.50;3.20;;;;;;;19.24;72.47;100078.50;5102975;28;20203;-73
2021/06/28 02:57:19;;;;;;;4.20;3.80;;;;;;;19.24;73.17;100015.00;5102755;28;20218;-73
2021/06/28 02:59:45;;;;;;;4.10;3.30;;;;;;;19.15;72.91;100042.88;5102694;28;20203;-73
2021/06/28 03:02:11;;;;;;;4.40;4.10;;;;;;;19.29;74.81;99972.38;5102453;28;20223;-73
2021/06/28 03:04:38;;;;;;;4.00;3.70;;;;;;;19.36;75.38;99945.41;5102954;28;20616;-73
2021/06/28 03:07:05;;;;;;;4.03;3.83;;;;;;;19.43;75.34;99933.50;5102555;28;20224;-73
2021/06/28 03:09:32;;;;;;;4.07;3.77;;;;;;;19.36;75.76;99932.16;5102939;28;20203;-73
2021/06/28 03:11:58;;;;;;;4.20;3.93;;;;;;;19.42;76.18;99923.00;5102206;28;20264;-73
2021/06/28 03:14:24;;;;;;;4.33;4.00;;;;;;;19.42;76.49;99900.03;5102615;28;20748;-73
2021/06/28 03:16:51;;;;;;;4.80;4.40;;;;;;;19.42;75.85;99939.75;5102566;28;20643;-73
2021/06/28 03:19:17;;;;;;;3.83;3.63;;;;;;;19.47;75.52;99947.38;5102084;28;20272;-73
2021/06/28 03:21:43;;;;;;;4.40;4.10;;;;;;;19.43;75.90;99940.59;5102536;28;20520;-72
2021/06/28 03:24:11;;;;;;;3.93;3.73;;;;;;;19.49;75.49;99961.38;5102527;28;20275;-73
2021/06/28 03:26:37;;;;;;;3.93;3.73;;;;;;;19.53;75.46;99964.69;5102316;28;20220;-73
2021/06/28 03:29:04;;;;;;;4.13;3.83;;;;;;;19.55;74.57;99995.41;5102477;28;20620;-73
2021/06/28 03:31:32;;;;;;;3.80;3.60;;;;;;;19.57;74.14;100032.38;5109836;28;20231;-73
2021/06/28 03:33:59;;;;;;;4.60;4.20;;;;;;;19.59;73.43;100044.56;5112481;28;20203;-74
2021/06/28 03:36:25;;;;;;;4.07;3.87;;;;;;;19.60;72.88;100075.41;5115120;28;20223;-72
2021/06/28 03:38:51;;;;;;;4.20;3.90;;;;;;;19.63;72.62;100077.00;5112486;28;20260;-73
2021/06/28 03:41:19;;;;;;;4.10;3.90;;;;;;;19.62;73.18;100054.97;5106547;28;20260;-73
2021/06/28 03:43:46;;;;;;;4.40;4.07;;;;;;;19.57;74.07;100011.19;5105891;28;20256;-74
2021/06/28 03:46:12;;;;;;;4.30;3.97;;;;;;;19.54;75.68;99963.72;5105930;28;20276;-73
2021/06/28 03:48:38;;;;;;;4.40;4.10;;;;;;;19.49;76.43;99940.19;5106271;28;20253;-73
2021/06/28 03:51:05;;;;;;;4.43;4.03;;;;;;;19.50;76.27;99938.38;5105963;28;20612;-73
2021/06/28 03:53:32;;;;;;;4.60;4.40;;;;;;;19.49;75.94;99955.25;5105461;28;20231;-73
2021/06/28 03:56:06;;;;;;;4.23;3.93;;;;;;;19.50;75.56;99971.00;5106108;28;20219;-73
2021/06/28 03:58:34;;;;;;;3.90;3.70;;;;;;;19.50;75.31;99984.22;5105820;28;20307;-73
2021/06/28 04:01:01;;;;;;;4.00;3.70;;;;;;;19.51;74.94;100009.78;5105586;28;20260;-73
2021/06/28 04:03:29;;;;;;;4.30;4.00;;;;;;;19.56;74.57;100015.66;5105990;28;20200;-74
2021/06/28 04:05:55;;;;;;;4.70;4.50;;;;;;;19.62;74.86;100019.69;5105693;28;20232;-73
2021/06/28 04:08:22;;;;;;;4.17;3.87;;;;;;;19.62;74.68;100020.56;5105872;28;20227;-73
2021/06/28 04:10:49;;;;;;;4.43;4.17;;;;;;;19.63;74.52;100021.38;5105923;28;20237;-73
2021/06/28 04:13:15;;;;;;;3.93;3.73;;;;;;;19.62;74.72;100028.50;5105507;28;20272;-73
2021/06/28 04:15:43;;;;;;;4.73;4.30;;;;;;;19.65;74.19;100045.97;5105349;28;20282;-73
2021/06/28 04:18:09;;;;;;;4.43;4.13;;;;;;;19.66;73.41;100084.72;5105563;28;20891;-73
2021/06/28 04:20:36;;;;;;;4.60;4.30;;;;;;;19.73;72.87;100111.75;5105889;28;20207;-73
2021/06/28 04:23:02;;;;;;;4.60;4.30;;;;;;;19.64;72.05;100166.06;5105187;28;20195;-74
2021/06/28 04:25:28;;;;;;;5.17;4.80;;;;;;;19.69;72.10;100149.91;5105208;28;20746;-73
2021/06/28 04:27:55;;;;;;;5.20;4.80;;;;;;;19.76;72.59;100141.53;5105605;28;20200;-74
2021/06/28 04:30:23;;;;;;;4.87;4.53;;;;;;;19.67;72.73;100141.22;5105025;28;20265;-72
2021/06/28 04:32:51;;;;;;;4.90;4.50;;;;;;;19.45;72.48;100169.00;5104887;28;20234;-73
2021/06/28 04:35:20;;;;;;;5.13;4.83;;;;;;;19.09;74.50;100088.22;5105146;28;20249;-73
2021/06/28 04:37:47;;;;;;;5.30;4.90;;;;;;;18.72;75.10;100065.72;5105262;28;20297;-73
2021/06/28 04:40:16;;;;;;;6.00;5.60;;;;;;;18.54;77.37;100004.22;5105318;28;20207;-73
2021/06/28 04:42:43;;;;;;;5.73;5.17;;;;;;;18.63;78.02;99964.88;5104515;28;20203;-73
2021/06/28 04:45:11;;;;;;;4.97;4.57;;;;;;;18.74;77.53;99976.59;5105009;28;20259;-73
2021/06/28 04:47:38;;;;;;;5.70;5.23;;;;;;;18.61;78.78;99957.94;5104671;28;20733;-73
2021/06/28 04:50:07;;;;;;;5.90;5.50;;;;;;;18.61;78.53;99958.81;5105240;28;20211;-73
2021/06/28 04:52:35;;;;;;;5.30;4.97;;;;;;;18.46;78.33;99971.16;5104637;28;20234;-73
2021/06/28 04:55:03;;;;;;;5.93;5.43;;;;;;;18.58;78.93;99940.50;5104929;28;20268;-73
2021/06/28 04:57:30;;;;;;;6.13;5.13;;;;;;;18.51;79.77;99915.34;5104319;28;20227;-73
2021/06/28 04:59:56;;;;;;;6.40;5.67;;;;;;;18.63;79.24;99930.50;5104691;28;20265;-73
2021/06/28 05:02:23;;;;;;;8.40;6.30;;;;;;;18.84;78.67;99962.72;5104793;28;20253;-73
2021/06/28 05:04:49;;;;;;;4.77;4.47;;;;;;;18.96;78.77;99955.00;5103410;27;20255;-74
2021/06/28 05:07:18;;;;;;;5.87;5.37;;;;;;;18.73;78.84;99972.22;5104906;27;20223;-74
2021/06/28 05:09:45;;;;;;;6.40;5.87;;;;;;;18.59;78.73;99976.56;5105213;27;20207;-74
2021/06/28 05:12:14;;;;;;;7.13;6.53;;;;;;;18.56;79.02;99966.16;5104903;27;20797;-74
2021/06/28 05:14:41;;;;;;;5.90;5.43;;;;;;;18.74;78.01;100006.50;5105467;27;20213;-74
2021/06/28 05:17:08;;;;;;;6.07;5.67;;;;;;;18.96;77.53;100029.06;5105059;27;20800;-73
2021/06/28 05:19:35;;;;;;;6.90;6.33;;;;;;;19.06;77.63;100022.25;5105138;27;20226;-73
2021/06/28 05:22:02;;;;;;;5.63;5.13;;;;;;;19.17;77.16;100038.34;5105344;27;20204;-73
2021/06/28 05:24:30;;;;;;;6.03;5.03;;;;;;;19.29;77.38;100027.97;5104789;27;20688;-74
2021/06/28 05:26:56;;;;;;;5.00;4.50;;;;;;;19.38;78.39;99996.44;5104751;27;20255;-73
2021/06/28 05:29:23;;;;;;;4.50;4.20;;;;;;;19.48;78.48;99987.94;5104953;27;20204;-73
2021/06/28 05:31:49;;;;;;;6.27;4.67;;;;;;;19.53;77.87;100010.53;5104975;27;20207;-74
2021/06/28 05:34:16;;;;;;;4.83;4.53;;;;;;;19.55;78.54;99992.75;5104625;27;20199;-74
2021/06/28 05:36:43;;;;;;;5.30;4.90;;;;;;;19.61;78.14;100002.94;5103482;27;20457;-73
2021/06/28 05:39:10;;;;;;;5.03;4.73;;;;;;;19.70;77.32;100037.72;5104602;27;20199;-74
2021/06/28 05:41:37;;;;;;;4.70;4.40;;;;;;;19.78;76.94;100056.66;5104587;27;20218;-73
2021/06/28 05:44:05;;;;;;;4.47;4.17;;;;;;;19.82;76.68;100059.03;5104708;27;20204;-73
2021/06/28 05:46:31;;;;;;;4.50;4.20;;;;;;;19.89;76.75;100056.00;5104538;27;20234;-74
2021/06/28 05:48:58;;;;;;;7.50;4.50;;;;;;;19.95;76.11;100077.63;5105198;27;20206;-74
2021/06/28 05:51:24;;;;;;;4.50;4.20;;;;;;;20.05;76.11;100083.19;5104746;27;20202;-73
2021/06/28 05:53:50;;;;;;;5.67;5.03;;;;;;;20.12;75.53;100107.50;5104208;27;20283;-73
2021/06/28 05:56:17;;;;;;;5.67;5.17;;;;;;;20.16;74.46;100154.94;5103710;27;20223;-73
2021/06/28 05:58:45;;;;;;;5.43;5.03;;;;;;;20.20;73.94;100182.94;5102217;27;20199;-74
2021/06/28 06:01:11;;;;;;;6.27;5.80;;;;;;;20.20;73.42;100204.13;5104527;27;20244;-73
2021/06/28 06:03:37;;;;;;;5.33;5.03;;;;;;;20.22;72.84;100222.59;5104160;27;20256;-74
2021/06/28 06:06:05;;;;;;;6.30;5.80;;;;;;;20.29;72.58;100233.66;5103795;27;20227;-73
2021/06/28 06:08:34;;;;;;;6.83;6.23;;;;;;;20.31;72.54;100237.06;5104456;27;20211;-74
2021/06/28 06:11:01;;;;;;;6.07;5.67;;;;;;;20.34;71.96;100256.28;5104550;27;20290;-75
2021/06/28 06:13:28;;;;;;;5.77;5.20;;;;;;;20.39;72.66;100234.78;5104102;27;20223;-75
2021/06/28 06:15:58;;;;;;;5.00;4.50;;;;;;;20.45;72.92;100215.81;5103762;28;20276;-75
2021/06/28 06:18:24;;;;;;;5.10;4.70;;;;;;;20.44;72.84;100214.13;5103375;27;20216;-76
2021/06/28 06:20:51;;;;;;;5.37;5.07;;;;;;;20.47;73.34;100203.31;5102802;28;20203;-75
2021/06/28 06:23:17;;;;;;;5.57;5.17;;;;;;;20.50;73.57;100187.22;5103034;28;20192;-75
2021/06/28 06:25:46;;;;;;;5.77;5.40;;;;;;;20.55;72.59;100235.50;5103163;28;20256;-74
2021/06/28 06:28:13;;;;;;;5.50;5.10;;;;;;;20.66;72.25;100249.94;5102996;28;20355;-74
2021/06/28 06:30:41;;;;;;;5.23;4.77;;;;;;;20.73;71.45;100272.44;5102400;28;20207;-75
2021/06/28 06:33:09;;;;;;;5.07;4.77;;;;;;;20.78;70.70;100311.00;5102481;28;20228;-75
2021/06/28 06:35:35;;;;;;;5.47;5.07;;;;;;;20.83;70.62;100316.00;5103222;28;20203;-75
2021/06/28 06:38:02;;;;;;;5.33;5.00;;;;;;;20.91;70.99;100304.91;5103478;28;20259;-75
2021/06/28 06:40:29;;;;;;;5.30;4.80;;;;;;;20.94;72.29;100252.47;5103408;28;20210;-76
2021/06/28 06:42:57;;;;;;;5.50;5.00;;;;;;;20.96;71.19;100278.94;5102082;28;20287;-75
2021/06/28 06:45:24;;;;;;;5.60;5.30;;;;;;;21.02;71.65;100273.22;5103146;28;20200;-75
2021/06/28 06:47:51;;;;;;;6.27;5.47;;;;;;;21.06;71.95;100257.94;5102353;28;20203;-73
2021/06/28 06:50:19;;;;;;;6.30;5.77;;;;;;;21.10;72.77;100256.78;5103063;28;20521;-75
2021/06/28 06:52:47;;;;;;;5.90;5.47;;;;;;;21.05;72.86;100233.22;5102266;28;20287;-77
2021/06/28 06:55:14;;;;;;;5.60;4.87;;;;;;;21.15;72.94;100234.31;5102734;28;20691;-75
2021/06/28 06:57:41;;;;;;;5.10;4.60;;;;;;;21.23;72.95;100231.16;5102518;28;20223;-75
2021/06/28 07:00:13;;;;;;;4.83;4.53;;;;;;;21.31;72.73;100234.13;5102800;28;20566;-76
2021/06/28 07:02:39;;;;;;;5.03;4.47;;;;;;;21.40;72.65;100240.63;5102337;28;20788;-76
2021/06/28 07:05:06;;;;;;;5.10;4.60;;;;;;;21.45;72.50;100243.84;5102102;28;20685;-76
2021/06/28 07:07:36;;;;;;;5.50;5.10;;;;;;;21.56;72.96;100236.00;5100644;28;20239;-76
2021/06/28 07:10:03;;;;;;;4.90;4.50;;;;;;;21.64;73.16;100218.69;5102678;28;20207;-77
2021/06/28 07:12:29;;;;;;;5.03;4.73;;;;;;;21.65;72.12;100261.09;5103106;28;20250;-76
2021/06/28 07:14:56;;;;;;;5.30;4.83;;;;;;;21.58;71.62;100291.69;5101953;28;20248;-76
2021/06/28 07:17:22;;;;;;;4.63;4.33;;;;;;;21.64;72.04;100264.69;5102459;28;20249;-76
2021/06/28 07:19:48;;;;;;;6.13;4.70;;;;;;;21.64;72.13;100262.03;5067237;28;1015583;-76
2021/06/28 07:22:15;;;;;;;6.23;5.60;;;;;;;21.59;71.83;100266.84;5103119;28;20203;-76
2021/06/28 07:24:44;;;;;;;6.30;5.80;;;;;;;21.63;71.57;100276.28;5102759;28;20199;-76
2021/06/28 07:27:10;;;;;;;5.63;5.23;;;;;;;21.68;71.61;100297.22;5103102;28;20319;-76
2021/06/28 07:29:36;;;;;;;7.00;6.37;;;;;;;21.73;70.83;100303.94;5102970;28;20237;-75
2021/06/28 07:32:03;;;;;;;12.33;6.30;;;;;;;21.80;69.86;100365.47;5102754;28;20264;-75
2021/06/28 07:34:30;;;;;;;9.80;5.97;;;;;;;21.87;69.65;100368.59;5103318;28;20223;-76
2021/06/28 07:36:56;;;;;;;7.23;5.93;;;;;;;21.86;71.11;100343.78;5103224;28;20275;-75
2021/06/28 07:39:22;;;;;;;7.67;6.60;;;;;;;21.93;69.46;100349.56;5102888;28;20203;-76
2021/06/28 07:41:50;;;;;;;7.27;6.63;;;;;;;22.01;67.89;100437.63;5102473;28;20203;-76
2021/06/28 07:44:17;;;;;;;7.87;6.00;;;;;;;22.04;67.21;100458.69;5102976;28;20195;-76
2021/06/28 07:46:45;;;;;;;8.23;6.10;;;;;;;22.11;66.16;100502.50;5102887;28;20229;-76
2021/06/28 07:49:12;;;;;;;6.77;6.27;;;;;;;22.11;68.73;100398.81;5103521;28;20204;-76
2021/06/28 07:51:38;;;;;;;8.40;5.43;;;;;;;22.21;66.22;100481.47;5103181;28;21073;-76
2021/06/28 07:54:05;;;;;;;6.33;5.93;;;;;;;22.30;64.88;100546.50;5102271;28;21147;-75
2021/06/28 07:56:32;;;;;;;6.50;5.90;;;;;;;22.38;64.82;100545.06;5102858;28;20227;-76
2021/06/28 07:59:00;;;;;;;6.07;5.40;;;;;;;22.48;63.33;100603.81;5103398;28;20204;-76
2021/06/28 08:01:28;;;;;;;7.37;6.10;;;;;;;22.54;64.21;100565.31;5103745;28;20573;-73
2021/06/28 08:03:55;;;;;;;5.93;5.50;;;;;;;22.61;63.81;100566.59;5102848;28;20203;-73
2021/06/28 08:06:21;;;;;;;5.97;5.17;;;;;;;22.61;63.38;100590.53;5103324;28;20287;-73
2021/06/28 08:08:50;;;;;;;5.70;5.20;;;;;;;22.71;64.58;100532.22;5102998;28;20815;-75
2021/06/28 08:11:18;;;;;;;5.37;4.80;;;;;;;22.79;65.03;100509.47;5103555;28;20200;-74
2021/06/28 08:13:47;;;;;;;5.27;4.93;;;;;;;22.90;64.03;100534.50;5102981;28;20220;-75
2021/06/28 08:16:18;;;;;;;4.80;4.50;;;;;;;22.97;62.88;100599.66;5103680;28;20226;-74
2021/06/28 08:18:47;;;;;;;5.00;4.60;;;;;;;23.06;60.60;100691.41;5104363;27;20733;-74
2021/06/28 08:21:14;;;;;;;5.37;4.93;;;;;;;23.10;61.07;100677.78;5106672;27;20214;-75
2021/06/28 08:23:40;;;;;;;5.40;4.90;;;;;;;23.17;59.29;100726.16;5106160;27;20269;-76
2021/06/28 08:26:07;;;;;;;5.37;4.87;;;;;;;23.20;60.66;100675.34;5106506;27;21358;-76
2021/06/28 08:28:33;;;;;;;4.77;4.47;;;;;;;23.22;59.75;100718.72;5107088;27;20257;-75
2021/06/28 08:31:00;;;;;;;4.67;4.37;;;;;;;23.26;61.14;100679.41;5106331;27;20614;-76
2021/06/28 08:33:28;;;;;;;5.43;5.03;;;;;;;23.32;60.73;100663.00;5105762;28;20220;-76
2021/06/28 08:35:55;;;;;;;4.70;4.40;;;;;;;23.34;61.44;100634.44;5105679;27;20253;-76
2021/06/28 08:38:21;;;;;;;5.43;5.13;;;;;;;23.38;63.49;100564.00;5106681;27;20203;-76
2021/06/28 08:40:50;;;;;;;5.70;4.80;;;;;;;23.46;63.33;100540.31;5106331;27;20214;-77
2021/06/28 08:43:16;;;;;;;5.10;4.80;;;;;;;23.52;62.40;100603.00;5105772;27;20205;-74
2021/06/28 08:45:44;;;;;;;5.30;4.97;;;;;;;23.57;61.46;100649.69;5106222;27;20245;-75
2021/06/28 08:48:10;;;;;;;5.33;5.03;;;;;;;23.63;60.90;100659.06;5106365;27;20209;-74
2021/06/28 08:50:41;;;;;;;5.20;4.90;;;;;;;23.70;59.29;100726.09;5105859;27;20211;-77
2021/06/28 08:53:08;;;;;;;5.10;4.70;;;;;;;23.82;57.87;100788.41;5106260;27;20227;-77
2021/06/28 08:55:36;;;;;;;5.07;4.77;;;;;;;23.85;58.81;100754.41;5110191;27;20207;-77
2021/06/28 08:58:03;;;;;;;5.60;5.30;;;;;;;23.90;62.10;100624.28;5111281;27;20210;-77
2021/06/28 09:00:29;;;;;;;5.50;5.10;;;;;;;23.98;59.80;100679.72;5112240;27;20208;-77
2021/06/28 09:02:58;;;;;;;5.60;5.10;;;;;;;24.06;59.59;100722.69;5105639;27;20587;-77
2021/06/28 09:05:25;;;;;;;5.30;5.00;;;;;;;24.17;56.56;100836.66;5105833;27;20212;-77
2021/06/28 09:08:09;;;;;;;5.90;5.50;;;;;;;24.22;57.47;100798.97;5106018;27;20857;-76
2021/06/28 09:10:37;;;;;;;5.43;5.13;;;;;;;24.20;59.89;100727.03;5106035;27;20211;-76
2021/06/28 09:13:04;;;;;;;5.40;5.10;;;;;;;24.28;56.61;100857.22;5105210;27;21034;-75
2021/06/28 09:15:36;;;;;;;5.60;5.20;;;;;;;24.36;55.89;100885.09;5105950;27;20216;-76
2021/06/28 09:18:15;;;;;;;6.20;5.80;;;;;;;24.38;55.36;100925.88;5106111;27;20279;-77
2021/06/28 09:20:42;;;;;;;5.80;5.40;;;;;;;24.49;55.60;100879.75;5105922;27;20209;-77
2021/06/28 09:23:18;;;;;;;6.60;6.10;;;;;;;24.55;55.65;100894.50;5105112;27;20275;-76
2021/06/28 09:25:45;;;;;;;5.90;5.60;;;;;;;24.63;55.76;100875.28;5105595;27;20223;-76
2021/06/28 09:28:11;;;;;;;5.93;5.53;;;;;;;24.74;57.52;100827.31;5105631;27;20286;-77
2021/06/28 09:30:40;;;;;;;6.00;5.60;;;;;;;24.80;58.25;100768.13;5104808;27;20214;-76
2021/06/28 09:33:06;;;;;;;5.63;5.33;;;;;;;24.91;53.49;100959.59;5105027;27;20203;-75
2021/06/28 09:35:35;;;;;;;6.17;5.77;;;;;;;24.98;54.91;100931.50;5104887;27;20209;-77
2021/06/28 09:38:04;;;;;;;6.87;6.20;;;;;;;25.07;58.40;100761.69;5105000;27;20264;-75
2021/06/28 09:40:34;;;;;;;6.10;5.70;;;;;;;25.11;53.92;100929.69;5104707;27;20215;-76
2021/06/28 09:43:15;;;;;;;5.70;5.30;;;;;;;25.18;53.53;100976.34;5105795;27;20819;-75
2021/06/28 09:45:42;;;;;;;5.93;5.60;;;;;;;25.26;51.88;101066.69;5105863;27;20226;-76
2021/06/28 09:48:22;;;;;;;5.87;5.37;;;;;;;25.34;57.03;100844.31;5105676;27;20203;-76
2021/06/28 09:50:49;;;;;;;5.90;5.37;;;;;;;25.41;60.16;100729.78;5105435;27;20212;-75
2021/06/28 09:53:26;;;;;;;5.70;5.40;;;;;;;25.46;59.12;100671.47;5105573;27;20537;-76
2021/06/28 09:55:54;;;;;;;7.97;5.93;;;;;;;25.61;56.67;100820.00;5104490;27;20226;-75
2021/06/28 09:58:23;;;;;;;5.63;5.33;;;;;;;25.71;54.22;100922.63;5105730;27;20207;-74
2021/06/28 10:00:51;;;;;;;5.73;5.33;;;;;;;25.89;57.33;100796.50;5104689;27;20256;-74
2021/06/28 10:03:30;;;;;;;5.47;5.17;;;;;;;26.05;56.51;100825.59;5104626;27;20230;-75
2021/06/28 10:06:07;;;;;;;5.97;5.67;;;;;;;26.21;56.55;100830.59;5104681;27;20789;-75
2021/06/28 10:08:34;;;;;;;6.90;6.40;;;;;;;26.38;58.06;100751.63;5105251;27;20577;-75
2021/06/28 10:11:16;;;;;;;7.23;6.83;;;;;;;26.47;53.28;100952.53;5104184;27;20211;-76
2021/06/28 10:13:45;;;;;;;6.07;5.77;;;;;;;26.57;54.35;100915.19;5104214;27;20494;-75
2021/06/28 10:16:12;;;;;;;7.03;6.63;;;;;;;26.83;57.26;100783.72;5105403;27;20219;-77
2021/06/28 10:18:39;;;;;;;7.40;6.87;;;;;;;26.97;57.59;100737.88;5104864;27;20276;-77
2021/06/28 10:21:06;;;;;;;7.10;6.60;;;;;;;27.04;53.81;100882.94;5104517;28;20673;-75
2021/06/28 10:23:34;;;;;;;6.57;6.27;;;;;;;27.10;55.60;100859.16;5103633;27;20210;-76
2021/06/28 10:26:01;;;;;;;6.57;6.00;;;;;;;27.20;50.90;101024.59;5104317;27;20866;-76
2021/06/28 10:28:30;;;;;;;6.37;5.80;;;;;;;27.29;50.95;101005.09;5103879;27;20662;-74
2021/06/28 10:30:56;;;;;;;7.10;6.73;;;;;;;27.24;53.15;100981.34;5103843;27;20257;-76
2021/06/28 10:33:23;;;;;;;6.80;6.40;;;;;;;27.36;48.81;101102.00;5103452;27;20623;-75
2021/06/28 10:35:51;;;;;;;6.27;5.97;;;;;;;27.37;51.09;100989.25;5103376;27;20215;-73
2021/06/28 10:38:17;;;;;;;6.40;6.10;;;;;;;27.49;48.05;101154.53;5103642;27;20203;-73
2021/06/28 10:40:48;;;;;;;6.50;5.90;;;;;;;27.55;48.60;101091.47;5104296;27;20264;-74
2021/06/28 10:43:26;;;;;;;6.10;5.70;;;;;;;27.65;47.97;101143.44;5102441;27;20211;-74
2021/06/28 10:45:54;;;;;;;6.87;6.50;;;;;;;27.75;48.16;101132.81;5103682;28;20231;-74
2021/06/28 10:48:22;;;;;;;5.67;5.37;;;;;;;27.85;48.34;101151.69;5103417;27;20199;-75
2021/06/28 10:50:51;;;;;;;6.67;6.17;;;;;;;27.98;48.73;101125.59;5103529;28;20207;-73
2021/06/28 10:53:19;;;;;;;5.73;5.50;;;;;;;27.99;45.70;101269.56;5103935;28;20562;-75
2021/06/28 10:55:45;;;;;;;6.00;5.60;;;;;;;28.12;47.69;101167.41;5102866;28;20227;-75
2021/06/28 10:58:27;;;;;;;5.10;4.70;;;;;;;28.23;45.41;101209.53;5103959;28;20272;-74
2021/06/28 11:01:04;;;;;;;5.20;4.90;;;;;;;28.41;45.55;101266.25;5102857;28;20264;-74
2021/06/28 11:03:33;;;;;;;5.20;4.90;;;;;;;28.69;46.28;101214.66;5103119;28;20210;-74
2021/06/28 11:06:17;;;;;;;5.43;5.13;;;;;;;28.79;42.72;101364.38;5102904;28;20224;-75
2021/06/28 11:08:57;;;;;;;6.20;5.80;;;;;;;29.06;47.21;101100.50;5102214;28;20431;-73
2021/06/28 11:11:56;;;;;;;5.63;5.33;;;;;;;29.15;42.39;101351.63;5103335;28;20698;-74
2021/06/28 11:14:42;;;;;;;5.70;5.40;;;;;;;29.24;45.60;101229.84;5103135;28;20223;-75
2021/06/28 11:17:15;;;;;;;5.50;5.20;;;;;;;29.34;43.11;101341.03;5103071;28;20223;-73
2021/06/28 11:20:09;;;;;;;5.70;5.37;;;;;;;29.18;48.17;101093.19;5103318;28;20214;-74
2021/06/28 11:22:55;;;;;;;6.90;6.50;;;;;;;29.06;44.29;101205.34;5088173;28;20625;-75
2021/06/28 11:25:25;;;;;;;6.67;6.07;;;;;;;28.97;48.22;101117.41;5103122;28;20480;-76
2021/06/28 11:28:13;;;;;;;6.33;6.03;;;;;;;29.04;47.88;101083.66;5103220;28;20203;-75
2021/06/28 11:30:47;;;;;;;6.00;5.70;;;;;;;28.97;48.80;101066.34;5103170;28;20436;-75